sensor_id;sensor_type;location;lat;lon;timestamp;pressure;altitude;pressure_sealevel;temperature;humidity
60970;BME280;46841;48.938;9.502;2024-01-25T00:01:45;99680.53;;;8.32;75.71
60970;BME280;46841;48.938;9.502;2024-01-25T00:04:11;99668.75;;;8.43;75.08
60970;BME280;46841;48.938;9.502;2024-01-25T00:06:36;99666.25;;;8.46;74.95
60970;BME280;46841;48.938;9.502;2024-01-25T00:09:02;99669.97;;;8.50;74.48
60970;BME280;46841;48.938;9.502;2024-01-25T00:11:29;99669.44;;;8.39;75.03
60970;BME280;46841;48.938;9.502;2024-01-25T00:13:57;99665.75;;;8.37;75.41
60970;BME280;46841;48.938;9.502;2024-01-25T00:16:23;99672.16;;;8.41;75.01
60970;BME280;46841;48.938;9.502;2024-01-25T00:18:49;99669.75;;;8.45;74.82
60970;BME280;46841;48.938;9.502;2024-01-25T00:21:14;99671.56;;;8.30;75.61
60970;BME280;46841;48.938;9.502;2024-01-25T00:23:40;99663.34;;;8.42;74.86
60970;BME280;46841;48.938;9.502;2024-01-25T00:26:05;99650.97;;;8.26;75.23
60970;BME280;46841;48.938;9.502;2024-01-25T00:28:32;99654.69;;;8.30;75.34
60970;BME280;46841;48.938;9.502;2024-01-25T00:31:00;99663.47;;;8.29;75.53
60970;BME280;46841;48.938;9.502;2024-01-25T00:33:26;99661.06;;;8.33;75.28
60970;BME280;46841;48.938;9.502;2024-01-25T00:35:51;99661.53;;;8.41;74.90
60970;BME280;46841;48.938;9.502;2024-01-25T00:38:18;99668.31;;;8.36;74.83
60970;BME280;46841;48.938;9.502;2024-01-25T00:40:45;99658.03;;;8.42;74.99
60970;BME280;46841;48.938;9.502;2024-01-25T00:43:11;99665.16;;;8.43;74.98
60970;BME280;46841;48.938;9.502;2024-01-25T00:45:37;99657.41;;;8.47;74.85
60970;BME280;46841;48.938;9.502;2024-01-25T00:48:02;99654.75;;;8.47;74.88
60970;BME280;46841;48.938;9.502;2024-01-25T00:50:28;99645.38;;;8.54;74.87
60970;BME280;46841;48.938;9.502;2024-01-25T00:52:54;99647.13;;;8.54;74.78
60970;BME280;46841;48.938;9.502;2024-01-25T00:55:20;99645.44;;;8.56;74.84
60970;BME280;46841;48.938;9.502;2024-01-25T00:57:46;99644.97;;;8.46;75.34
60970;BME280;46841;48.938;9.502;2024-01-25T01:00:12;99638.91;;;8.49;75.04
60970;BME280;46841;48.938;9.502;2024-01-25T01:02:40;99639.06;;;8.36;75.97
60970;BME280;46841;48.938;9.502;2024-01-25T01:05:06;99638.09;;;8.34;75.57
60970;BME280;46841;48.938;9.502;2024-01-25T01:07:32;99638.81;;;8.31;76.30
60970;BME280;46841;48.938;9.502;2024-01-25T01:09:59;99640.31;;;8.26;76.62
60970;BME280;46841;48.938;9.502;2024-01-25T01:12:24;99641.81;;;8.37;76.14
60970;BME280;46841;48.938;9.502;2024-01-25T01:14:50;99641.94;;;8.39;76.08
60970;BME280;46841;48.938;9.502;2024-01-25T01:17:17;99642.41;;;8.48;75.54
60970;BME280;46841;48.938;9.502;2024-01-25T01:19:45;99638.00;;;8.48;75.56
60970;BME280;46841;48.938;9.502;2024-01-25T01:22:10;99645.97;;;8.48;75.41
60970;BME280;46841;48.938;9.502;2024-01-25T01:24:36;99642.00;;;8.40;76.09
60970;BME280;46841;48.938;9.502;2024-01-25T01:27:01;99642.06;;;8.42;75.68
60970;BME280;46841;48.938;9.502;2024-01-25T01:29:27;99644.81;;;8.43;75.83
60970;BME280;46841;48.938;9.502;2024-01-25T01:31:53;99648.09;;;8.56;75.22
60970;BME280;46841;48.938;9.502;2024-01-25T01:34:18;99648.94;;;8.55;74.98
60970;BME280;46841;48.938;9.502;2024-01-25T01:36:44;99648.78;;;8.52;75.29
60970;BME280;46841;48.938;9.502;2024-01-25T01:39:09;99652.91;;;8.63;74.85
60970;BME280;46841;48.938;9.502;2024-01-25T01:41:35;99651.06;;;8.62;74.57
60970;BME280;46841;48.938;9.502;2024-01-25T01:44:01;99653.06;;;8.66;74.78
60970;BME280;46841;48.938;9.502;2024-01-25T01:46:37;99649.06;;;8.74;74.07
60970;BME280;46841;48.938;9.502;2024-01-25T01:49:06;99659.47;;;8.69;74.20
60970;BME280;46841;48.938;9.502;2024-01-25T01:51:32;99655.97;;;8.70;74.08
60970;BME280;46841;48.938;9.502;2024-01-25T01:54:00;99660.84;;;8.79;73.87
60970;BME280;46841;48.938;9.502;2024-01-25T01:56:27;99657.03;;;8.74;73.98
60970;BME280;46841;48.938;9.502;2024-01-25T01:59:00;99640.63;;;8.83;73.92
60970;BME280;46841;48.938;9.502;2024-01-25T02:01:27;99647.72;;;8.82;74.16
60970;BME280;46841;48.938;9.502;2024-01-25T02:03:53;99651.09;;;8.80;74.31
60970;BME280;46841;48.938;9.502;2024-01-25T02:06:19;99650.19;;;8.79;74.22
60970;BME280;46841;48.938;9.502;2024-01-25T02:08:47;99648.88;;;8.71;74.85
60970;BME280;46841;48.938;9.502;2024-01-25T02:11:12;99650.13;;;8.78;74.04
60970;BME280;46841;48.938;9.502;2024-01-25T02:13:38;99648.44;;;8.80;74.11
60970;BME280;46841;48.938;9.502;2024-01-25T02:16:04;99647.38;;;8.76;74.44
60970;BME280;46841;48.938;9.502;2024-01-25T02:18:30;99637.44;;;8.72;74.68
60970;BME280;46841;48.938;9.502;2024-01-25T02:20:57;99641.25;;;8.77;74.05
60970;BME280;46841;48.938;9.502;2024-01-25T02:23:23;99639.56;;;8.79;73.95
60970;BME280;46841;48.938;9.502;2024-01-25T02:25:48;99645.84;;;8.81;73.52
60970;BME280;46841;48.938;9.502;2024-01-25T02:28:14;99643.44;;;8.86;73.37
60970;BME280;46841;48.938;9.502;2024-01-25T02:30:39;99644.94;;;8.81;73.45
60970;BME280;46841;48.938;9.502;2024-01-25T02:33:04;99643.06;;;8.78;73.48
60970;BME280;46841;48.938;9.502;2024-01-25T02:35:30;99650.13;;;8.78;73.61
60970;BME280;46841;48.938;9.502;2024-01-25T02:37:55;99644.41;;;8.70;73.71
60970;BME280;46841;48.938;9.502;2024-01-25T02:40:21;99652.69;;;8.76;72.95
60970;BME280;46841;48.938;9.502;2024-01-25T02:42:47;99659.03;;;8.78;72.88
60970;BME280;46841;48.938;9.502;2024-01-25T02:45:12;99651.88;;;8.77;73.23
60970;BME280;46841;48.938;9.502;2024-01-25T02:47:38;99655.34;;;8.76;73.22
60970;BME280;46841;48.938;9.502;2024-01-25T02:50:03;99652.63;;;8.74;72.60
60970;BME280;46841;48.938;9.502;2024-01-25T02:52:30;99657.78;;;8.71;72.73
60970;BME280;46841;48.938;9.502;2024-01-25T02:54:55;99653.41;;;8.72;72.52
60970;BME280;46841;48.938;9.502;2024-01-25T02:57:21;99649.97;;;8.74;72.47
60970;BME280;46841;48.938;9.502;2024-01-25T02:59:46;99650.75;;;8.72;72.41
60970;BME280;46841;48.938;9.502;2024-01-25T03:02:12;99649.72;;;8.70;72.14
60970;BME280;46841;48.938;9.502;2024-01-25T03:04:39;99642.59;;;8.69;72.66
60970;BME280;46841;48.938;9.502;2024-01-25T03:07:06;99645.19;;;8.67;72.67
60970;BME280;46841;48.938;9.502;2024-01-25T03:09:32;99651.25;;;8.65;72.91
60970;BME280;46841;48.938;9.502;2024-01-25T03:11:58;99655.72;;;8.66;72.41
60970;BME280;46841;48.938;9.502;2024-01-25T03:14:23;99651.06;;;8.62;72.96
60970;BME280;46841;48.938;9.502;2024-01-25T03:16:49;99647.00;;;8.68;72.35
60970;BME280;46841;48.938;9.502;2024-01-25T03:19:14;99649.31;;;8.62;72.47
60970;BME280;46841;48.938;9.502;2024-01-25T03:21:40;99635.47;;;8.52;72.89
60970;BME280;46841;48.938;9.502;2024-01-25T03:24:07;99651.13;;;8.45;73.29
60970;BME280;46841;48.938;9.502;2024-01-25T03:26:32;99650.47;;;8.50;72.77
60970;BME280;46841;48.938;9.502;2024-01-25T03:28:58;99645.13;;;8.50;72.57
60970;BME280;46841;48.938;9.502;2024-01-25T03:31:24;99652.09;;;8.47;72.72
60970;BME280;46841;48.938;9.502;2024-01-25T03:33:51;99656.19;;;8.41;73.10
60970;BME280;46841;48.938;9.502;2024-01-25T03:36:17;99660.59;;;8.40;73.49
60970;BME280;46841;48.938;9.502;2024-01-25T03:38:42;99662.44;;;8.41;73.14
60970;BME280;46841;48.938;9.502;2024-01-25T03:41:08;99663.44;;;8.43;72.99
60970;BME280;46841;48.938;9.502;2024-01-25T03:43:35;99672.63;;;8.50;72.87
60970;BME280;46841;48.938;9.502;2024-01-25T03:46:01;99675.06;;;8.45;72.87
60970;BME280;46841;48.938;9.502;2024-01-25T03:48:26;99675.00;;;8.44;72.96
60970;BME280;46841;48.938;9.502;2024-01-25T03:50:52;99677.47;;;8.41;73.12
60970;BME280;46841;48.938;9.502;2024-01-25T03:53:24;99681.88;;;8.40;72.79
60970;BME280;46841;48.938;9.502;2024-01-25T03:55:49;99679.22;;;8.40;72.92
60970;BME280;46841;48.938;9.502;2024-01-25T03:58:17;99685.94;;;8.34;73.26
60970;BME280;46841;48.938;9.502;2024-01-25T04:00:44;99691.25;;;8.34;73.59
60970;BME280;46841;48.938;9.502;2024-01-25T04:03:10;99685.44;;;8.41;73.36
60970;BME280;46841;48.938;9.502;2024-01-25T04:05:36;99699.13;;;8.32;73.35
60970;BME280;46841;48.938;9.502;2024-01-25T04:08:03;99691.44;;;8.37;73.21
60970;BME280;46841;48.938;9.502;2024-01-25T04:10:29;99701.41;;;8.25;73.34
60970;BME280;46841;48.938;9.502;2024-01-25T04:12:55;99695.75;;;8.35;73.27
60970;BME280;46841;48.938;9.502;2024-01-25T04:15:23;99703.28;;;8.27;73.44
60970;BME280;46841;48.938;9.502;2024-01-25T04:17:50;99701.41;;;8.25;73.28
60970;BME280;46841;48.938;9.502;2024-01-25T04:20:15;99706.13;;;8.30;73.48
60970;BME280;46841;48.938;9.502;2024-01-25T04:22:41;99717.34;;;8.25;73.44
60970;BME280;46841;48.938;9.502;2024-01-25T04:25:07;99722.16;;;8.32;72.88
60970;BME280;46841;48.938;9.502;2024-01-25T04:27:32;99721.06;;;8.28;72.97
60970;BME280;46841;48.938;9.502;2024-01-25T04:29:58;99724.16;;;8.19;73.64
60970;BME280;46841;48.938;9.502;2024-01-25T04:32:23;99721.25;;;8.15;73.97
60970;BME280;46841;48.938;9.502;2024-01-25T04:34:49;99723.22;;;8.19;73.50
60970;BME280;46841;48.938;9.502;2024-01-25T04:37:14;99717.00;;;8.18;73.37
60970;BME280;46841;48.938;9.502;2024-01-25T04:39:40;99718.75;;;8.18;73.54
60970;BME280;46841;48.938;9.502;2024-01-25T04:42:07;99725.03;;;8.04;73.72
60970;BME280;46841;48.938;9.502;2024-01-25T04:44:33;99724.22;;;8.05;73.46
60970;BME280;46841;48.938;9.502;2024-01-25T04:47:00;99721.81;;;8.09;73.42
60970;BME280;46841;48.938;9.502;2024-01-25T04:49:25;99724.91;;;8.01;73.92
60970;BME280;46841;48.938;9.502;2024-01-25T04:51:51;99723.41;;;8.06;73.83
60970;BME280;46841;48.938;9.502;2024-01-25T04:54:17;99723.56;;;8.09;73.42
60970;BME280;46841;48.938;9.502;2024-01-25T04:56:43;99728.97;;;8.10;73.75
60970;BME280;46841;48.938;9.502;2024-01-25T04:59:09;99727.97;;;8.08;73.67
60970;BME280;46841;48.938;9.502;2024-01-25T05:01:34;99737.75;;;7.93;74.12
60970;BME280;46841;48.938;9.502;2024-01-25T05:03:59;99747.22;;;7.88;74.24
60970;BME280;46841;48.938;9.502;2024-01-25T05:06:25;99759.53;;;7.71;75.06
60970;BME280;46841;48.938;9.502;2024-01-25T05:08:51;99764.44;;;7.80;74.53
60970;BME280;46841;48.938;9.502;2024-01-25T05:11:16;99757.75;;;7.86;74.42
60970;BME280;46841;48.938;9.502;2024-01-25T05:13:42;99758.47;;;7.84;74.54
60970;BME280;46841;48.938;9.502;2024-01-25T05:16:08;99767.56;;;7.87;74.10
60970;BME280;46841;48.938;9.502;2024-01-25T05:18:33;99761.91;;;7.81;74.60
60970;BME280;46841;48.938;9.502;2024-01-25T05:20:59;99768.50;;;7.73;74.79
60970;BME280;46841;48.938;9.502;2024-01-25T05:23:26;99771.84;;;7.85;74.24
60970;BME280;46841;48.938;9.502;2024-01-25T05:25:53;99771.34;;;7.76;74.64
60970;BME280;46841;48.938;9.502;2024-01-25T05:28:19;99776.09;;;7.82;74.31
60970;BME280;46841;48.938;9.502;2024-01-25T05:30:45;99771.19;;;7.89;74.00
60970;BME280;46841;48.938;9.502;2024-01-25T05:33:10;99775.78;;;7.92;74.09
60970;BME280;46841;48.938;9.502;2024-01-25T05:35:37;99771.19;;;7.89;73.93
60970;BME280;46841;48.938;9.502;2024-01-25T05:38:02;99782.31;;;7.82;74.37
60970;BME280;46841;48.938;9.502;2024-01-25T05:40:28;99783.69;;;7.76;74.32
60970;BME280;46841;48.938;9.502;2024-01-25T05:42:54;99786.88;;;7.85;74.41
60970;BME280;46841;48.938;9.502;2024-01-25T05:45:21;99783.88;;;7.79;74.47
60970;BME280;46841;48.938;9.502;2024-01-25T05:47:48;99788.81;;;7.87;74.08
60970;BME280;46841;48.938;9.502;2024-01-25T05:50:14;99787.78;;;7.85;74.20
60970;BME280;46841;48.938;9.502;2024-01-25T05:52:41;99784.97;;;7.82;74.18
60970;BME280;46841;48.938;9.502;2024-01-25T05:55:07;99795.25;;;7.76;74.29
60970;BME280;46841;48.938;9.502;2024-01-25T05:57:35;99790.75;;;7.75;74.19
60970;BME280;46841;48.938;9.502;2024-01-25T06:00:01;99797.72;;;7.73;74.55
60970;BME280;46841;48.938;9.502;2024-01-25T06:02:33;99792.69;;;7.78;74.14
60970;BME280;46841;48.938;9.502;2024-01-25T06:04:59;99796.50;;;7.83;74.89
60970;BME280;46841;48.938;9.502;2024-01-25T06:07:27;99794.06;;;7.71;74.80
60970;BME280;46841;48.938;9.502;2024-01-25T06:09:53;99793.03;;;7.53;75.18
60970;BME280;46841;48.938;9.502;2024-01-25T06:12:18;99786.34;;;7.44;75.31
60970;BME280;46841;48.938;9.502;2024-01-25T06:14:44;99781.38;;;7.51;74.53
60970;BME280;46841;48.938;9.502;2024-01-25T06:17:10;99783.03;;;7.49;74.93
60970;BME280;46841;48.938;9.502;2024-01-25T06:19:37;99787.63;;;7.36;75.07
60970;BME280;46841;48.938;9.502;2024-01-25T06:22:03;99780.28;;;7.32;75.08
60970;BME280;46841;48.938;9.502;2024-01-25T06:24:28;99792.78;;;7.33;75.02
60970;BME280;46841;48.938;9.502;2024-01-25T06:26:54;99789.72;;;7.27;75.08
60970;BME280;46841;48.938;9.502;2024-01-25T06:29:19;99794.94;;;7.40;74.56
60970;BME280;46841;48.938;9.502;2024-01-25T06:31:45;99791.47;;;7.41;74.55
60970;BME280;46841;48.938;9.502;2024-01-25T06:34:12;99798.72;;;7.29;75.04
60970;BME280;46841;48.938;9.502;2024-01-25T06:36:38;99811.44;;;7.20;75.01
60970;BME280;46841;48.938;9.502;2024-01-25T06:39:04;99813.06;;;6.88;75.94
60970;BME280;46841;48.938;9.502;2024-01-25T06:41:33;99813.34;;;6.93;76.29
60970;BME280;46841;48.938;9.502;2024-01-25T06:43:59;99825.97;;;6.82;76.47
60970;BME280;46841;48.938;9.502;2024-01-25T06:46:25;99825.88;;;6.81;76.54
60970;BME280;46841;48.938;9.502;2024-01-25T06:48:51;99834.47;;;6.91;76.15
60970;BME280;46841;48.938;9.502;2024-01-25T06:51:16;99823.03;;;6.92;76.71
60970;BME280;46841;48.938;9.502;2024-01-25T06:53:42;99824.72;;;7.05;76.18
60970;BME280;46841;48.938;9.502;2024-01-25T06:56:07;99823.16;;;7.24;75.74
60970;BME280;46841;48.938;9.502;2024-01-25T06:58:33;99822.41;;;7.26;75.34
60970;BME280;46841;48.938;9.502;2024-01-25T07:00:59;99828.84;;;7.30;74.83
60970;BME280;46841;48.938;9.502;2024-01-25T07:03:24;99833.78;;;7.24;75.09
60970;BME280;46841;48.938;9.502;2024-01-25T07:05:50;99827.81;;;7.13;75.36
60970;BME280;46841;48.938;9.502;2024-01-25T07:08:15;99825.00;;;7.10;75.41
60970;BME280;46841;48.938;9.502;2024-01-25T07:10:43;99825.06;;;7.11;75.59
60970;BME280;46841;48.938;9.502;2024-01-25T07:13:10;99831.09;;;7.09;75.38
60970;BME280;46841;48.938;9.502;2024-01-25T07:15:36;99837.06;;;7.19;75.44
60970;BME280;46841;48.938;9.502;2024-01-25T07:18:02;99826.19;;;7.15;75.30
60970;BME280;46841;48.938;9.502;2024-01-25T07:20:31;99833.13;;;7.13;75.17
60970;BME280;46841;48.938;9.502;2024-01-25T07:22:58;99838.06;;;7.07;75.16
60970;BME280;46841;48.938;9.502;2024-01-25T07:25:23;99836.84;;;6.87;75.83
60970;BME280;46841;48.938;9.502;2024-01-25T07:27:50;99839.63;;;6.60;77.23
60970;BME280;46841;48.938;9.502;2024-01-25T07:30:18;99848.72;;;6.51;77.70
60970;BME280;46841;48.938;9.502;2024-01-25T07:32:44;99851.78;;;6.57;78.08
60970;BME280;46841;48.938;9.502;2024-01-25T07:35:11;99849.97;;;6.71;77.61
60970;BME280;46841;48.938;9.502;2024-01-25T07:37:38;99852.56;;;6.84;77.28
60970;BME280;46841;48.938;9.502;2024-01-25T07:40:04;99850.81;;;6.84;77.13
60970;BME280;46841;48.938;9.502;2024-01-25T07:42:29;99842.16;;;6.87;76.93
60970;BME280;46841;48.938;9.502;2024-01-25T07:44:55;99846.25;;;6.82;77.29
60970;BME280;46841;48.938;9.502;2024-01-25T07:47:20;99848.75;;;6.93;76.82
60970;BME280;46841;48.938;9.502;2024-01-25T07:49:46;99848.69;;;7.07;76.04
60970;BME280;46841;48.938;9.502;2024-01-25T07:52:11;99857.38;;;7.04;76.09
60970;BME280;46841;48.938;9.502;2024-01-25T07:54:37;99859.75;;;7.00;76.50
60970;BME280;46841;48.938;9.502;2024-01-25T07:57:02;99852.72;;;7.15;75.75
60970;BME280;46841;48.938;9.502;2024-01-25T07:59:28;99851.13;;;7.18;75.67
60970;BME280;46841;48.938;9.502;2024-01-25T08:01:56;99843.66;;;7.26;75.50
60970;BME280;46841;48.938;9.502;2024-01-25T08:04:22;99841.63;;;7.37;75.11
60970;BME280;46841;48.938;9.502;2024-01-25T08:06:47;99851.16;;;7.48;74.82
60970;BME280;46841;48.938;9.502;2024-01-25T08:09:13;99848.59;;;7.50;74.69
60970;BME280;46841;48.938;9.502;2024-01-25T08:11:39;99853.84;;;7.33;75.18
60970;BME280;46841;48.938;9.502;2024-01-25T08:14:06;99854.47;;;7.29;75.41
60970;BME280;46841;48.938;9.502;2024-01-25T08:16:31;99857.28;;;7.47;75.15
60970;BME280;46841;48.938;9.502;2024-01-25T08:19:00;99851.53;;;7.54;74.97
60970;BME280;46841;48.938;9.502;2024-01-25T08:21:26;99854.16;;;7.69;75.06
60970;BME280;46841;48.938;9.502;2024-01-25T08:23:51;99856.41;;;7.92;73.76
60970;BME280;46841;48.938;9.502;2024-01-25T08:26:17;99860.81;;;7.92;73.87
60970;BME280;46841;48.938;9.502;2024-01-25T08:28:43;99859.53;;;8.00;73.33
60970;BME280;46841;48.938;9.502;2024-01-25T08:31:10;99863.97;;;8.16;72.97
60970;BME280;46841;48.938;9.502;2024-01-25T08:33:36;99860.91;;;8.25;72.62
60970;BME280;46841;48.938;9.502;2024-01-25T08:36:01;99866.13;;;8.23;72.77
60970;BME280;46841;48.938;9.502;2024-01-25T08:38:27;99866.94;;;8.37;72.77
60970;BME280;46841;48.938;9.502;2024-01-25T08:40:52;99867.63;;;8.49;72.08
60970;BME280;46841;48.938;9.502;2024-01-25T08:43:18;99876.13;;;8.58;71.58
60970;BME280;46841;48.938;9.502;2024-01-25T08:45:44;99886.19;;;8.64;71.20
60970;BME280;46841;48.938;9.502;2024-01-25T08:48:10;99875.13;;;8.89;70.80
60970;BME280;46841;48.938;9.502;2024-01-25T08:50:39;99883.59;;;8.98;70.67
60970;BME280;46841;48.938;9.502;2024-01-25T08:53:04;99879.38;;;9.02;70.60
60970;BME280;46841;48.938;9.502;2024-01-25T08:55:30;99883.94;;;9.20;70.06
60970;BME280;46841;48.938;9.502;2024-01-25T08:57:56;99891.00;;;9.04;70.64
60970;BME280;46841;48.938;9.502;2024-01-25T09:00:21;99895.31;;;9.18;70.37
60970;BME280;46841;48.938;9.502;2024-01-25T09:02:47;99898.53;;;9.29;70.13
60970;BME280;46841;48.938;9.502;2024-01-25T09:05:13;99907.31;;;9.26;70.61
60970;BME280;46841;48.938;9.502;2024-01-25T09:07:40;99909.19;;;9.29;70.35
60970;BME280;46841;48.938;9.502;2024-01-25T09:10:06;99898.81;;;9.00;71.14
60970;BME280;46841;48.938;9.502;2024-01-25T09:12:31;99903.47;;;9.21;70.90
60970;BME280;46841;48.938;9.502;2024-01-25T09:14:57;99899.41;;;9.11;71.15
60970;BME280;46841;48.938;9.502;2024-01-25T09:17:22;99896.31;;;9.04;71.75
60970;BME280;46841;48.938;9.502;2024-01-25T09:19:48;99911.56;;;9.06;71.27
60970;BME280;46841;48.938;9.502;2024-01-25T09:22:17;99910.53;;;9.37;70.20
60970;BME280;46841;48.938;9.502;2024-01-25T09:24:48;99906.63;;;10.71;66.52
60970;BME280;46841;48.938;9.502;2024-01-25T09:27:15;99894.84;;;11.84;62.98
60970;BME280;46841;48.938;9.502;2024-01-25T09:29:42;99903.34;;;12.38;60.27
60970;BME280;46841;48.938;9.502;2024-01-25T09:32:10;99909.34;;;11.10;63.28
60970;BME280;46841;48.938;9.502;2024-01-25T09:34:36;99911.44;;;11.37;63.15
60970;BME280;46841;48.938;9.502;2024-01-25T09:37:03;99920.16;;;11.73;61.74
60970;BME280;46841;48.938;9.502;2024-01-25T09:39:29;99914.72;;;12.12;59.89
60970;BME280;46841;48.938;9.502;2024-01-25T09:41:55;99919.44;;;11.56;61.90
60970;BME280;46841;48.938;9.502;2024-01-25T09:44:22;99916.38;;;12.08;60.86
60970;BME280;46841;48.938;9.502;2024-01-25T09:46:47;99910.63;;;12.65;58.97
60970;BME280;46841;48.938;9.502;2024-01-25T09:49:13;99915.69;;;13.02;57.56
60970;BME280;46841;48.938;9.502;2024-01-25T09:51:41;99923.75;;;12.57;57.77
60970;BME280;46841;48.938;9.502;2024-01-25T09:54:09;99923.31;;;12.91;56.15
60970;BME280;46841;48.938;9.502;2024-01-25T09:56:35;99927.28;;;12.56;57.26
60970;BME280;46841;48.938;9.502;2024-01-25T09:59:02;99914.31;;;12.67;56.85
60970;BME280;46841;48.938;9.502;2024-01-25T10:01:29;99921.25;;;12.84;56.29
60970;BME280;46841;48.938;9.502;2024-01-25T10:03:55;99921.00;;;13.23;55.45
60970;BME280;46841;48.938;9.502;2024-01-25T10:06:23;99914.91;;;12.82;55.74
60970;BME280;46841;48.938;9.502;2024-01-25T10:08:52;99913.03;;;12.79;56.28
60970;BME280;46841;48.938;9.502;2024-01-25T10:11:18;99905.53;;;13.65;53.98
60970;BME280;46841;48.938;9.502;2024-01-25T10:13:45;99897.25;;;13.57;54.28
60970;BME280;46841;48.938;9.502;2024-01-25T10:16:19;99899.19;;;13.62;54.45
60970;BME280;46841;48.938;9.502;2024-01-25T10:18:48;99906.91;;;12.83;54.74
60970;BME280;46841;48.938;9.502;2024-01-25T10:21:15;99912.97;;;12.55;56.80
60970;BME280;46841;48.938;9.502;2024-01-25T10:23:44;99903.34;;;13.79;54.06
60970;BME280;46841;48.938;9.502;2024-01-25T10:26:12;99908.34;;;13.94;52.53
60970;BME280;46841;48.938;9.502;2024-01-25T10:28:37;99907.88;;;12.84;55.53
60970;BME280;46841;48.938;9.502;2024-01-25T10:31:03;99896.75;;;12.97;55.01
60970;BME280;46841;48.938;9.502;2024-01-25T10:33:33;99889.94;;;13.53;53.40
60970;BME280;46841;48.938;9.502;2024-01-25T10:36:00;99901.38;;;13.01;54.99
60970;BME280;46841;48.938;9.502;2024-01-25T10:38:34;99898.22;;;12.44;56.76
60970;BME280;46841;48.938;9.502;2024-01-25T10:41:03;99903.09;;;12.77;56.05
60970;BME280;46841;48.938;9.502;2024-01-25T10:43:29;99900.38;;;12.10;57.33
60970;BME280;46841;48.938;9.502;2024-01-25T10:45:59;99907.50;;;11.69;58.92
60970;BME280;46841;48.938;9.502;2024-01-25T10:48:25;99897.94;;;11.74;58.54
60970;BME280;46841;48.938;9.502;2024-01-25T10:50:52;99890.31;;;12.25;57.23
60970;BME280;46841;48.938;9.502;2024-01-25T10:53:18;99888.63;;;12.72;54.29
60970;BME280;46841;48.938;9.502;2024-01-25T10:55:44;99891.28;;;11.84;56.44
60970;BME280;46841;48.938;9.502;2024-01-25T10:58:14;99877.81;;;13.39;52.29
60970;BME280;46841;48.938;9.502;2024-01-25T11:00:40;99864.09;;;14.62;49.78
60970;BME280;46841;48.938;9.502;2024-01-25T11:03:06;99852.50;;;14.93;48.97
60970;BME280;46841;48.938;9.502;2024-01-25T11:05:31;99845.88;;;14.52;48.75
60970;BME280;46841;48.938;9.502;2024-01-25T11:07:57;99842.56;;;15.52;46.48
60970;BME280;46841;48.938;9.502;2024-01-25T11:10:27;99839.72;;;15.14;46.69
60970;BME280;46841;48.938;9.502;2024-01-25T11:13:00;99839.13;;;16.29;44.34
60970;BME280;46841;48.938;9.502;2024-01-25T11:15:31;99840.06;;;18.00;40.33
60970;BME280;46841;48.938;9.502;2024-01-25T11:17:57;99834.66;;;18.56;39.88
60970;BME280;46841;48.938;9.502;2024-01-25T11:20:25;99843.34;;;15.17;46.41
60970;BME280;46841;48.938;9.502;2024-01-25T11:25:23;99832.44;;;16.10;45.03
60970;BME280;46841;48.938;9.502;2024-01-25T11:27:49;99824.88;;;15.29;46.35
60970;BME280;46841;48.938;9.502;2024-01-25T11:30:18;99827.28;;;14.88;48.02
60970;BME280;46841;48.938;9.502;2024-01-25T11:32:47;99829.47;;;15.01;47.56
60970;BME280;46841;48.938;9.502;2024-01-25T11:35:13;99826.16;;;13.21;50.61
60970;BME280;46841;48.938;9.502;2024-01-25T11:37:49;99836.19;;;12.32;54.23
60970;BME280;46841;48.938;9.502;2024-01-25T11:40:15;99843.06;;;12.03;55.32
60970;BME280;46841;48.938;9.502;2024-01-25T11:42:42;99830.69;;;13.71;51.01
60970;BME280;46841;48.938;9.502;2024-01-25T11:45:10;99823.09;;;14.68;48.46
60970;BME280;46841;48.938;9.502;2024-01-25T11:47:37;99812.09;;;15.20;46.96
60970;BME280;46841;48.938;9.502;2024-01-25T11:50:03;99809.34;;;14.87;48.08
60970;BME280;46841;48.938;9.502;2024-01-25T11:52:29;99802.84;;;14.50;48.63
60970;BME280;46841;48.938;9.502;2024-01-25T11:54:57;99809.94;;;14.77;47.88
60970;BME280;46841;48.938;9.502;2024-01-25T11:57:22;99814.66;;;13.74;50.84
60970;BME280;46841;48.938;9.502;2024-01-25T11:59:48;99815.00;;;13.83;51.05
60970;BME280;46841;48.938;9.502;2024-01-25T12:02:15;99807.06;;;14.42;49.88
60970;BME280;46841;48.938;9.502;2024-01-25T12:04:41;99803.66;;;14.19;50.62
60970;BME280;46841;48.938;9.502;2024-01-25T12:07:07;99806.38;;;13.41;51.64
60970;BME280;46841;48.938;9.502;2024-01-25T12:09:33;99813.47;;;12.91;54.04
60970;BME280;46841;48.938;9.502;2024-01-25T12:12:02;99806.00;;;13.06;53.67
60970;BME280;46841;48.938;9.502;2024-01-25T12:14:28;99803.56;;;12.89;53.90
60970;BME280;46841;48.938;9.502;2024-01-25T12:16:57;99806.47;;;12.71;53.63
60970;BME280;46841;48.938;9.502;2024-01-25T12:19:22;99817.38;;;12.75;54.57
60970;BME280;46841;48.938;9.502;2024-01-25T12:21:49;99796.75;;;14.56;49.94
60970;BME280;46841;48.938;9.502;2024-01-25T12:24:16;99806.88;;;14.65;49.00
60970;BME280;46841;48.938;9.502;2024-01-25T12:26:41;99793.31;;;15.23;47.19
60970;BME280;46841;48.938;9.502;2024-01-25T12:29:07;99794.63;;;14.74;47.38
60970;BME280;46841;48.938;9.502;2024-01-25T12:31:35;99785.13;;;15.85;45.69
60970;BME280;46841;48.938;9.502;2024-01-25T12:34:00;99766.00;;;15.39;46.42
60970;BME280;46841;48.938;9.502;2024-01-25T12:36:26;99759.63;;;15.36;47.20
60970;BME280;46841;48.938;9.502;2024-01-25T12:38:52;99756.81;;;16.81;43.52
60970;BME280;46841;48.938;9.502;2024-01-25T12:41:19;99755.13;;;17.81;41.00
60970;BME280;46841;48.938;9.502;2024-01-25T12:43:45;99752.34;;;17.27;41.43
60970;BME280;46841;48.938;9.502;2024-01-25T12:46:10;99752.94;;;17.59;40.92
60970;BME280;46841;48.938;9.502;2024-01-25T12:48:36;99763.03;;;17.21;41.94
60970;BME280;46841;48.938;9.502;2024-01-25T12:51:01;99749.66;;;17.27;41.81
60970;BME280;46841;48.938;9.502;2024-01-25T12:53:30;99756.13;;;17.36;41.74
60970;BME280;46841;48.938;9.502;2024-01-25T12:55:55;99757.53;;;17.66;41.20
60970;BME280;46841;48.938;9.502;2024-01-25T12:58:21;99754.97;;;18.28;40.03
60970;BME280;46841;48.938;9.502;2024-01-25T13:00:46;99752.06;;;18.14;39.08
60970;BME280;46841;48.938;9.502;2024-01-25T13:03:12;99739.72;;;18.99;37.77
60970;BME280;46841;48.938;9.502;2024-01-25T13:05:38;99730.13;;;20.39;35.90